Time;durP1;ratioP1;P1;durP2;ratioP2;P2;SDS_P1;SDS_P2;PMS_P1;PMS_P2;Temp;Humidity;BMP_temperature;BMP_pressure;BME280_temperature;BME280_humidity;BME280_pressure;Samples;Min_cycle;Max_cycle;Signal;HPM_P1;HPM_P2
2023/01/16 00:00:11;;;;;;;3.93;1.50;;;;;;;16.91;53.12;95555.34;10365977;28;20029;-25
2023/01/16 00:05:11;;;;;;;1.73;1.13;;;;;;;16.90;53.10;95558.72;10369055;28;20277;-25
2023/01/16 00:10:12;;;;;;;4.53;1.30;;;;;;;16.92;52.32;95541.84;10367556;28;20061;-25
2023/01/16 00:15:12;;;;;;;4.03;1.42;;;;;;;16.98;53.59;95526.59;10366289;28;20306;-26
2023/01/16 00:20:12;;;;;;;4.10;1.50;;;;;;;16.99;52.70;95518.16;10365977;28;20092;-26
2023/01/16 00:25:13;;;;;;;2.97;1.10;;;;;;;16.98;53.79;95496.28;10365234;28;20144;-26
2023/01/16 00:30:13;;;;;;;3.92;1.38;;;;;;;16.94;55.77;95495.47;10366169;28;20037;-25
2023/01/16 00:35:14;;;;;;;2.95;1.50;;;;;;;16.94;55.74;95487.03;10367607;28;20026;-26
2023/01/16 00:40:14;;;;;;;3.40;1.10;;;;;;;16.96;54.89;95477.72;10366567;28;20124;-26
2023/01/16 00:45:15;;;;;;;3.70;1.50;;;;;;;16.97;53.34;95457.50;10373091;28;20037;-26
2023/01/16 00:50:15;;;;;;;4.78;1.30;;;;;;;16.95;54.44;95443.19;10367596;28;20079;-27
2023/01/16 00:55:16;;;;;;;1.83;1.02;;;;;;;16.95;54.67;95436.47;10367199;28;20512;-25
2023/01/16 01:00:19;;;;;;;2.58;1.40;;;;;;;16.95;54.88;95425.50;10373866;28;20101;-24
2023/01/16 01:05:20;;;;;;;3.97;1.90;;;;;;;16.97;55.07;95423.78;10374080;28;20061;-25
2023/01/16 01:10:20;;;;;;;4.05;1.23;;;;;;;16.96;54.60;95412.00;10373159;28;20192;-26
2023/01/16 01:15:23;;;;;;;2.55;1.10;;;;;;;16.96;53.75;95401.91;10372100;28;20034;-26
2023/01/16 01:20:24;;;;;;;2.08;1.10;;;;;;;16.91;54.69;95380.94;10372477;28;20026;-25
2023/01/16 01:25:24;;;;;;;2.33;1.10;;;;;;;16.93;55.02;95389.31;10370526;28;20022;-25
2023/01/16 01:30:25;;;;;;;2.33;1.13;;;;;;;16.92;53.72;95369.94;10377128;28;20103;-25
2023/01/16 01:35:25;;;;;;;4.57;1.57;;;;;;;16.91;53.56;95348.06;10378843;28;20033;-26
2023/01/16 01:40:25;;;;;;;8.47;1.27;;;;;;;16.90;56.10;95341.34;10370245;28;20044;-25
2023/01/16 01:45:28;;;;;;;2.42;1.15;;;;;;;16.87;56.43;95322.00;10370234;28;20029;-27
2023/01/16 01:50:44;;;;;;;3.45;1.20;;;;;;;16.88;54.78;95311.03;10372413;28;20026;-25
2023/01/16 01:55:47;;;;;;;3.53;1.20;;;;;;;16.90;54.06;95296.66;10372638;28;20053;-25
2023/01/16 02:00:52;;;;;;;2.53;0.95;;;;;;;16.88;53.99;95270.59;10369829;28;20037;-25
2023/01/16 02:05:57;;;;;;;1.83;0.82;;;;;;;16.90;54.86;95263.00;10370962;28;20034;-25
2023/01/16 02:11:08;;;;;;;2.20;1.20;;;;;;;16.88;54.96;95252.03;10371061;28;20055;-25
2023/01/16 02:21:55;;;;;;;1.77;0.80;;;;;;;16.82;54.79;95201.63;10371239;28;20038;-26
2023/01/16 02:27:14;;;;;;;2.03;0.90;;;;;;;16.80;55.04;95183.13;10361253;28;20034;-26
2023/01/16 02:32:21;;;;;;;2.58;0.70;;;;;;;16.82;55.44;95172.13;10371589;28;20547;-26
2023/01/16 02:37:34;;;;;;;2.95;1.00;;;;;;;16.81;55.21;95174.69;10370368;28;20077;-26
2023/01/16 02:42:45;;;;;;;2.50;1.10;;;;;;;16.82;54.26;95146.84;10369947;28;20029;-26
2023/01/16 02:48:10;;;;;;;2.13;0.73;;;;;;;16.81;55.06;95124.97;10364162;28;20030;-26
2023/01/16 02:53:26;;;;;;;2.60;1.00;;;;;;;16.81;56.27;95106.47;10369828;28;20052;-25
2023/01/16 02:58:28;;;;;;;1.88;0.90;;;;;;;16.81;55.97;95083.72;10369109;28;20517;-25
2023/01/16 03:03:41;;;;;;;3.17;0.90;;;;;;;16.81;55.90;95083.72;10370431;28;20045;-26
2023/01/16 03:09:03;;;;;;;2.40;0.93;;;;;;;16.77;55.28;95057.69;10368837;28;20029;-26
2023/01/16 03:14:25;;;;;;;3.55;1.30;;;;;;;16.77;54.93;95047.56;10372877;28;20030;-26
2023/01/16 03:19:29;;;;;;;2.63;1.00;;;;;;;16.77;54.81;95045.03;10368222;28;20030;-25
2023/01/16 03:24:35;;;;;;;1.98;0.82;;;;;;;16.77;54.65;95021.44;10366565;28;20030;-25
2023/01/16 03:29:45;;;;;;;4.73;1.23;;;;;;;16.77;54.22;95001.25;10367926;28;20044;-25
2023/01/16 03:34:51;;;;;;;3.13;0.90;;;;;;;16.76;53.81;94989.47;10361640;28;20299;-25
2023/01/16 03:39:57;;;;;;;2.70;0.70;;;;;;;16.76;53.93;94969.25;10369112;28;20042;-26
2023/01/16 03:45:04;;;;;;;2.72;0.80;;;;;;;16.74;53.98;94951.59;10371404;28;20034;-26
2023/01/16 03:50:09;;;;;;;1.63;0.80;;;;;;;16.75;55.21;94932.22;10367241;28;20038;-25
2023/01/16 03:55:15;;;;;;;1.10;0.60;;;;;;;16.74;54.62;94926.31;10367568;28;20072;-25
2023/01/16 04:00:17;;;;;;;2.38;0.70;;;;;;;16.79;55.34;94909.38;10367920;28;20112;-25
2023/01/16 04:05:21;;;;;;;2.72;1.15;;;;;;;16.77;55.69;94880.78;10375934;28;20113;-26
2023/01/16 04:10:26;;;;;;;3.45;0.88;;;;;;;16.79;54.91;94868.09;10366244;28;20502;-26
2023/01/16 04:15:30;;;;;;;1.67;0.73;;;;;;;16.78;54.52;94846.22;10389356;28;20116;-26
2023/01/16 04:20:31;;;;;;;5.28;1.15;;;;;;;16.75;54.55;94834.50;10365323;28;20505;-26
2023/01/16 04:25:31;;;;;;;2.58;0.90;;;;;;;16.72;55.13;94810.19;10361656;28;20034;-27
2023/01/16 04:30:32;;;;;;;2.17;0.77;;;;;;;16.67;54.90;94787.56;10367086;28;20030;-25
2023/01/16 04:35:33;;;;;;;2.17;0.73;;;;;;;16.72;54.10;94790.81;10366155;28;20080;-26
2023/01/16 04:40:33;;;;;;;2.42;0.47;;;;;;;16.73;55.43;94767.19;10361301;28;20034;-25
2023/01/16 04:45:34;;;;;;;1.50;0.50;;;;;;;16.74;54.22;94738.53;10365031;28;20048;-25
2023/01/16 04:50:34;;;;;;;2.00;1.10;;;;;;;16.73;54.11;94709.09;10365609;28;20416;-26
2023/01/16 04:55:34;;;;;;;1.40;0.60;;;;;;;16.77;53.69;94713.19;10360983;28;20294;-24
2023/01/16 05:00:35;;;;;;;1.70;0.55;;;;;;;16.87;52.60;94701.97;10374006;28;20100;-27
2023/01/16 05:05:38;;;;;;;0.80;0.32;;;;;;;16.88;52.72;94685.94;10365169;28;20121;-25
2023/01/16 05:10:38;;;;;;;1.25;0.50;;;;;;;16.89;54.36;94669.94;10377987;28;20029;-26
2023/01/16 05:15:38;;;;;;;0.50;0.50;;;;;;;16.91;53.64;94660.59;10366571;28;20112;-26
2023/01/16 05:20:39;;;;;;;0.97;0.50;;;;;;;16.94;52.65;94635.25;10365136;28;20033;-25
2023/01/16 05:25:40;;;;;;;3.22;0.57;;;;;;;16.98;52.42;94634.31;10354974;28;20041;-26
2023/01/16 05:30:40;;;;;;;1.53;0.40;;;;;;;16.98;51.39;94599.72;10362412;28;20501;-25
2023/01/16 05:35:40;;;;;;;1.93;0.47;;;;;;;17.01;51.95;94591.25;10363795;28;20300;-26
2023/01/16 05:40:41;;;;;;;0.65;0.40;;;;;;;16.96;50.42;94572.84;10364174;28;20402;-25
2023/01/16 05:45:41;;;;;;;5.05;0.70;;;;;;;17.00;51.40;94549.16;10372988;28;20657;-26
2023/01/16 05:50:42;;;;;;;2.27;0.80;;;;;;;16.99;50.51;94528.09;10367033;28;20034;-24
2023/01/16 05:55:45;;;;;;;3.13;0.90;;;;;;;16.93;50.40;94522.38;10365406;28;20037;-25
2023/01/16 06:00:45;;;;;;;3.83;0.80;;;;;;;16.96;50.86;94504.59;10364452;28;20033;-26
2023/01/16 06:05:45;;;;;;;7.33;1.87;;;;;;;16.92;51.48;94490.41;10362736;28;20294;-29
2023/01/16 06:10:47;;;;;;;7.27;1.40;;;;;;;16.96;53.59;94459.09;10365280;28;20577;-26
2023/01/16 06:15:48;;;;;;;3.85;1.52;;;;;;;16.99;52.97;94456.50;10371918;28;20418;-26
2023/01/16 06:20:48;;;;;;;1.57;0.83;;;;;;;16.95;53.89;94444.81;10373259;28;20040;-26
2023/01/16 06:25:49;;;;;;;2.78;0.85;;;;;;;16.91;54.29;94428.13;10358969;28;20101;-26
2023/01/16 06:30:51;;;;;;;1.42;0.80;;;;;;;16.93;51.25;94411.19;10379212;28;20032;-26
2023/01/16 06:35:52;;;;;;;3.03;0.70;;;;;;;16.73;49.04;94411.78;10365203;28;20042;-26
2023/01/16 06:40:55;;;;;;;4.80;0.80;;;;;;;16.85;50.10;94395.44;10367951;28;20092;-26
2023/01/16 06:45:56;;;;;;;3.80;1.15;;;;;;;16.87;50.60;94376.00;10378332;28;20041;-27
2023/01/16 06:50:58;;;;;;;4.10;1.08;;;;;;;16.87;50.97;94350.72;10366067;28;20029;-26
2023/01/16 06:55:59;;;;;;;2.63;0.90;;;;;;;16.88;51.19;94338.06;10363602;28;20050;-27
2023/01/16 07:00:59;;;;;;;2.73;0.70;;;;;;;16.88;51.20;94327.13;10372069;28;20038;-28
2023/01/16 07:05:59;;;;;;;2.70;1.30;;;;;;;16.88;50.86;94306.91;10369824;28;20045;-26
2023/01/16 07:11:00;;;;;;;2.40;0.83;;;;;;;16.85;51.60;94302.78;10366452;28;20041;-27
2023/01/16 07:26:47;;;;;;;1.40;0.45;;;;;;;16.80;50.34;94281.06;10355094;28;20041;-27
2023/01/16 07:31:47;;;;;;;1.63;0.77;;;;;;;16.81;51.87;94273.44;10369609;28;20124;-27
2023/01/16 07:36:48;;;;;;;1.17;0.90;;;;;;;16.81;52.49;94239.78;10367825;28;20571;-27
2023/01/16 07:41:50;;;;;;;2.53;0.82;;;;;;;16.81;51.78;94254.94;10368271;28;20299;-27
2023/01/16 07:46:52;;;;;;;1.55;0.65;;;;;;;16.79;51.44;94238.97;10362004;28;20041;-27
2023/01/16 07:51:52;;;;;;;1.90;0.70;;;;;;;16.79;50.32;94241.50;10366666;28;20037;-26
2023/01/16 07:56:53;;;;;;;1.30;0.50;;;;;;;16.78;50.95;94265.13;10365887;28;20029;-27
2023/01/16 08:01:53;;;;;;;0.87;0.43;;;;;;;16.73;51.53;94251.84;10368845;28;20398;-27
2023/01/16 08:06:53;;;;;;;1.33;0.70;;;;;;;16.76;51.19;94269.41;10374193;28;20506;-27
2023/01/16 08:11:54;;;;;;;1.20;0.60;;;;;;;16.76;51.46;94261.81;10366707;28;20030;-27
2023/01/16 08:16:54;;;;;;;0.43;0.40;;;;;;;16.74;50.94;94254.28;10360053;28;20026;-27
2023/01/16 08:21:54;;;;;;;2.20;0.60;;;;;;;16.74;51.05;94245.91;10370691;28;20047;-27
2023/01/16 08:26:55;;;;;;;0.50;0.37;;;;;;;16.75;51.00;94229.88;10353135;28;20292;-26
2023/01/16 08:31:58;;;;;;;3.40;0.57;;;;;;;16.73;51.49;94212.22;10367775;28;20036;-26
2023/01/16 08:36:58;;;;;;;2.75;0.80;;;;;;;16.66;51.58;94212.50;10364488;28;20052;-27
2023/01/16 08:52:44;;;;;;;0.95;0.40;;;;;;;16.74;52.10;94220.63;10369686;28;20144;-27
2023/01/16 08:57:44;;;;;;;0.95;0.43;;;;;;;16.73;51.55;94219.00;10346448;28;20490;-26
2023/01/16 09:02:45;;;;;;;0.73;0.40;;;;;;;16.72;52.45;94208.94;10373910;28;20279;-27
2023/01/16 09:07:45;;;;;;;1.00;0.40;;;;;;;16.69;51.83;94187.13;10359102;28;20308;-27
2023/01/16 09:18:05;;;;;;;1.73;0.30;;;;;;;16.66;51.33;94182.19;10359694;28;20038;-27
2023/01/16 09:23:05;;;;;;;0.60;0.30;;;;;;;16.67;51.41;94188.03;10369119;28;20034;-27
2023/01/16 09:28:05;;;;;;;1.33;0.32;;;;;;;16.69;51.68;94204.78;10366264;28;20383;-26
2023/01/16 09:33:06;;;;;;;0.70;0.60;;;;;;;16.66;51.19;94191.44;10367141;28;20114;-26
2023/01/16 09:38:06;;;;;;;0.83;0.40;;;;;;;16.66;50.41;94197.34;10372420;28;20129;-26
2023/01/16 09:43:35;;;;;;;0.67;0.50;;;;;;;16.67;52.12;94191.41;10369867;28;20835;-27
2023/01/16 09:48:43;;;;;;;0.60;0.40;;;;;;;16.61;51.45;94195.84;10377275;28;20328;-26
2023/01/16 09:59:33;;;;;;;0.75;0.30;;;;;;;16.69;51.98;94179.53;10367854;28;20049;-27
2023/01/16 10:04:35;;;;;;;0.30;0.30;;;;;;;16.66;51.43;94169.53;10368221;28;20101;-27
2023/01/16 10:10:00;;;;;;;0.60;0.45;;;;;;;16.65;52.04;94167.06;10369647;28;20053;-27
2023/01/16 10:15:11;;;;;;;0.90;0.30;;;;;;;16.66;50.96;94163.66;10371830;28;20118;-27
2023/01/16 10:20:26;;;;;;;0.22;0.20;;;;;;;16.65;50.43;94146.84;10368179;28;20042;-27
2023/01/16 10:25:35;;;;;;;0.68;0.38;;;;;;;16.63;51.48;94136.00;10369837;28;20129;-27
2023/01/16 10:30:44;;;;;;;0.32;0.32;;;;;;;16.61;51.51;94130.97;10367913;28;20112;-27
2023/01/16 10:35:49;;;;;;;0.80;0.40;;;;;;;16.58;52.13;94115.94;10370586;28;20116;-26
2023/01/16 10:40:53;;;;;;;0.20;0.20;;;;;;;16.62;51.95;94117.47;10362799;28;20090;-27
2023/01/16 10:51:23;;;;;;;0.70;0.40;;;;;;;16.59;52.44;94087.28;10345488;28;20482;-27
2023/01/16 10:56:23;;;;;;;0.30;0.23;;;;;;;16.58;52.07;94070.47;10362101;28;20026;-27
2023/01/16 11:01:25;;;;;;;0.40;0.23;;;;;;;16.59;52.11;94073.81;10370379;28;20037;-27
2023/01/16 11:06:27;;;;;;;0.40;0.40;;;;;;;16.63;52.28;94058.50;10364272;28;20045;-27
2023/01/16 11:22:22;;;;;;;0.32;0.30;;;;;;;16.64;51.17;94029.03;10361651;28;20057;-27
2023/01/16 11:27:26;;;;;;;0.55;0.20;;;;;;;16.66;51.42;94023.06;10351309;28;20513;-26
2023/01/16 11:32:28;;;;;;;0.30;0.30;;;;;;;16.68;50.39;93973.31;10367026;28;20026;-27
2023/01/16 11:37:29;;;;;;;0.77;0.50;;;;;;;16.75;49.76;93967.94;10366351;28;20034;-27
2023/01/16 11:47:54;;;;;;;1.00;0.50;;;;;;;16.76;50.30;93928.38;10370266;28;20030;-27
2023/01/16 11:52:55;;;;;;;0.93;0.50;;;;;;;16.79;47.88;93916.44;10374979;28;20040;-26
2023/01/16 11:58:32;;;;;;;2.30;0.80;;;;;;;16.82;48.96;93928.16;10368502;28;20399;-27
2023/01/16 12:03:41;;;;;;;0.85;0.45;;;;;;;16.84;48.71;93911.22;10372053;28;20030;-27
2023/01/16 12:09:08;;;;;;;3.92;0.70;;;;;;;16.85;48.01;93882.56;10365623;28;20088;-27
2023/01/16 12:14:27;;;;;;;2.10;1.23;;;;;;;16.85;49.84;93878.34;10362247;28;20052;-27
2023/01/16 12:19:56;;;;;;;1.25;0.73;;;;;;;16.83;50.23;93851.47;10364607;28;20029;-27
2023/01/16 12:25:01;;;;;;;3.50;1.10;;;;;;;16.83;50.35;93848.94;10359150;28;20050;-27
2023/01/16 12:30:07;;;;;;;4.15;1.40;;;;;;;16.82;50.19;93839.72;10367354;28;20034;-27
2023/01/16 12:35:26;;;;;;;0.70;0.57;;;;;;;16.85;49.51;93847.19;10357159;28;20072;-26
2023/01/16 12:40:30;;;;;;;1.70;1.10;;;;;;;16.84;49.15;93850.59;10368888;28;20038;-27
2023/01/16 12:45:55;;;;;;;1.75;0.98;;;;;;;16.84;49.22;93840.50;10368094;28;20105;-27
2023/01/16 12:51:14;;;;;;;1.52;0.70;;;;;;;16.82;50.37;93817.00;10354569;28;20042;-27
2023/01/16 12:56:43;;;;;;;2.65;1.00;;;;;;;16.85;50.41;93832.03;10357456;28;20062;-27
2023/01/16 13:01:52;;;;;;;3.17;0.90;;;;;;;16.87;48.94;93827.72;10374956;28;20509;-27
2023/01/16 13:07:00;;;;;;;4.40;1.00;;;;;;;16.82;49.81;93847.31;10373086;28;20128;-27
2023/01/16 13:17:51;;;;;;;1.80;0.93;;;;;;;16.82;50.61;93812.75;10365544;28;20037;-27
2023/01/16 13:23:01;;;;;;;2.35;1.20;;;;;;;16.81;50.20;93777.47;10383699;28;20033;-27
2023/01/16 13:28:37;;;;;;;2.83;1.10;;;;;;;16.82;53.02;93769.00;10365856;28;20120;-27
2023/01/16 13:33:42;;;;;;;11.00;1.90;;;;;;;16.81;54.82;93765.63;10366632;28;20042;-27
2023/01/16 13:38:49;;;;;;;3.22;1.05;;;;;;;16.81;51.27;93749.69;10375410;28;20062;-27
2023/01/16 13:49:25;;;;;;;4.72;1.23;;;;;;;16.83;52.17;93730.22;10366202;28;20034;-28
2023/01/16 13:54:41;;;;;;;6.22;1.33;;;;;;;16.85;50.13;93733.50;10373097;28;20406;-27
2023/01/16 13:59:52;;;;;;;2.47;0.85;;;;;;;16.85;51.53;93730.97;10369382;28;20026;-28
2023/01/16 14:05:15;;;;;;;3.10;1.02;;;;;;;16.82;51.58;93726.84;10372644;28;20487;-27
2023/01/16 14:10:23;;;;;;;2.15;0.80;;;;;;;16.78;49.88;93720.31;10368933;28;20089;-28
2023/01/16 14:20:47;;;;;;;1.10;0.45;;;;;;;16.77;50.86;93709.44;10370908;28;20441;-26
2023/01/16 14:25:59;;;;;;;2.45;0.52;;;;;;;16.77;51.29;93690.03;10366497;28;20066;-26
2023/01/16 14:31:01;;;;;;;1.38;0.50;;;;;;;16.79;49.08;93690.78;10371385;28;20045;-29
2023/01/16 14:36:02;;;;;;;1.80;0.70;;;;;;;16.85;50.02;93675.41;10368687;28;20493;-27
2023/01/16 14:57:23;;;;;;;5.47;1.00;;;;;;;16.67;49.08;93741.81;10368101;28;20112;-26
2023/01/16 15:02:33;;;;;;;3.88;1.08;;;;;;;16.73;49.68;93728.97;10370719;28;20136;-27
2023/01/16 15:07:56;;;;;;;3.17;0.73;;;;;;;16.79;49.52;93731.22;10369090;28;20064;-26
2023/01/16 15:13:19;;;;;;;4.13;1.10;;;;;;;16.75;51.00;93714.56;10363485;28;20072;-27
2023/01/16 15:23:40;;;;;;;6.18;0.90;;;;;;;16.72;51.23;93739.94;10365969;28;20040;-27
2023/01/16 15:28:51;;;;;;;1.92;1.02;;;;;;;16.68;51.47;93756.09;10366844;28;20045;-27
2023/01/16 15:34:23;;;;;;;1.40;0.57;;;;;;;16.67;50.56;93762.03;10370096;28;20072;-27
2023/01/16 15:39:39;;;;;;;33.83;2.22;;;;;;;16.68;50.80;93763.66;10367322;28;20050;-27
2023/01/16 15:50:38;;;;;;;9.63;2.17;;;;;;;16.76;49.42;93771.75;10366832;28;20395;-27
2023/01/16 15:55:44;;;;;;;23.15;3.22;;;;;;;16.77;47.72;93773.41;10364878;28;20076;-27
2023/01/16 16:00:44;;;;;;;17.73;1.35;;;;;;;16.82;48.91;93799.31;10368681;28;20033;-28
2023/01/16 16:05:48;;;;;;;6.50;1.00;;;;;;;16.79;47.13;93800.25;10365141;28;20180;-26
2023/01/16 16:22:47;;;;;;;6.03;0.80;;;;;;;16.80;45.75;93819.56;10366044;28;20109;-26
2023/01/16 16:27:17;;;;;;;1.55;0.80;;;;;;;16.82;46.85;93822.06;10361953;28;20121;-27
2023/01/16 16:32:19;;;;;;;4.68;0.60;;;;;;;16.82;46.85;93835.47;10368102;28;20026;-28
2023/01/16 16:37:20;;;;;;;20.88;2.20;;;;;;;16.80;45.90;93854.09;10371815;28;20120;-26
2023/01/16 16:42:27;;;;;;;6.00;1.08;;;;;;;16.82;45.15;93862.47;10364194;28;20030;-26
2023/01/16 16:47:30;;;;;;;5.57;0.70;;;;;;;16.81;45.66;93846.47;10367413;28;20414;-25
2023/01/16 16:52:35;;;;;;;349.42;27.40;;;;;;;16.82;45.82;93847.31;10353252;28;20052;-27
2023/01/16 16:57:42;;;;;;;70.63;5.03;;;;;;;16.85;45.28;93854.75;10357405;28;20026;-28
2023/01/16 17:02:43;;;;;;;22.02;2.63;;;;;;;16.87;46.07;93875.72;10365889;28;20030;-27
2023/01/16 17:07:45;;;;;;;14.55;1.67;;;;;;;16.60;44.66;93870.94;10354158;28;20509;-27
2023/01/16 17:12:45;;;;;;;14.05;1.35;;;;;;;16.77;46.56;93873.63;10363746;28;20076;-26
2023/01/16 17:17:46;;;;;;;11.32;1.88;;;;;;;16.83;47.77;93894.44;10365542;28;20073;-27
2023/01/16 17:22:48;;;;;;;8.82;3.70;;;;;;;16.86;45.66;93897.66;10365192;28;20042;-27
2023/01/16 17:27:51;;;;;;;6.07;1.73;;;;;;;16.86;46.53;93915.34;10363308;28;20030;-26
2023/01/16 17:33:00;;;;;;;6.18;1.42;;;;;;;16.84;46.35;93919.59;10364215;28;20030;-27
2023/01/16 17:38:00;;;;;;;4.68;1.40;;;;;;;16.84;46.50;93926.38;10366407;28;20037;-26
2023/01/16 17:48:20;;;;;;;4.45;1.08;;;;;;;16.84;46.29;93923.84;10364441;28;20277;-27
2023/01/16 17:53:23;;;;;;;1.60;0.70;;;;;;;16.84;46.83;93927.19;10364395;28;20065;-27
2023/01/16 17:58:42;;;;;;;9.18;1.20;;;;;;;16.85;46.84;93935.59;10371306;28;20405;-28
2023/01/16 18:03:48;;;;;;;1.45;0.40;;;;;;;16.86;45.25;93932.19;10371210;28;20317;-27
2023/01/16 18:08:49;;;;;;;3.30;0.52;;;;;;;16.86;45.47;93935.56;10372349;28;20041;-27
2023/01/16 18:19:10;;;;;;;1.30;0.55;;;;;;;16.67;47.00;93963.25;10370902;28;20091;-27
2023/01/16 18:24:10;;;;;;;1.90;0.60;;;;;;;16.42;43.73;93950.69;10371555;28;20044;-27
2023/01/16 18:29:10;;;;;;;4.07;0.90;;;;;;;16.34;47.42;93959.38;10366413;28;20037;-26
2023/01/16 18:34:11;;;;;;;2.08;0.43;;;;;;;16.12;42.46;93959.31;10363831;28;20096;-27
2023/01/16 19:05:53;;;;;;;2.60;0.45;;;;;;;16.27;44.17;93973.91;10359215;28;20037;-28
2023/01/16 19:10:56;;;;;;;1.15;0.50;;;;;;;16.18;43.49;93959.09;10362823;28;20037;-27
2023/01/16 19:21:15;;;;;;;1.52;0.70;;;;;;;16.25;46.36;93965.59;10361891;28;20034;-27
2023/01/16 19:26:16;;;;;;;1.23;0.57;;;;;;;16.21;44.17;93960.69;10373899;28;20037;-27
2023/01/16 19:31:16;;;;;;;0.53;0.40;;;;;;;16.27;46.06;93983.22;10366492;28;20340;-27
2023/01/16 19:36:16;;;;;;;1.20;0.47;;;;;;;16.26;48.44;93987.41;10363955;28;20054;-26
2023/01/16 19:46:42;;;;;;;2.58;0.50;;;;;;;16.37;49.25;94010.63;10345746;28;20474;-28
2023/01/16 19:51:42;;;;;;;2.72;0.60;;;;;;;16.26;46.05;94011.81;10363567;28;20034;-26
2023/01/16 19:56:42;;;;;;;0.40;0.40;;;;;;;16.21;47.34;94017.03;10359413;28;20481;-27
2023/01/16 20:02:18;;;;;;;0.77;0.40;;;;;;;16.22;45.45;94010.31;10363475;28;20476;-27
2023/01/16 20:07:19;;;;;;;2.85;0.50;;;;;;;16.20;47.52;93997.72;10309809;28;20688;-28
2023/01/16 20:12:29;;;;;;;0.73;0.40;;;;;;;16.21;47.00;94018.75;10360528;28;20038;-27
2023/01/16 20:17:36;;;;;;;1.00;0.38;;;;;;;16.17;46.31;94033.16;10355731;28;20037;-27
2023/01/16 20:22:37;;;;;;;1.67;0.60;;;;;;;16.18;48.66;94024.72;10362047;28;20512;-27
2023/01/16 20:27:38;;;;;;;3.15;0.57;;;;;;;16.19;46.15;94023.84;10355603;28;20072;-27
2023/01/16 20:32:38;;;;;;;1.20;0.47;;;;;;;16.21;46.98;94022.06;10362852;28;20022;-27
2023/01/16 20:37:39;;;;;;;1.80;0.70;;;;;;;16.20;45.53;94019.63;10357790;28;20033;-28
2023/01/16 20:47:58;;;;;;;0.50;0.40;;;;;;;16.17;48.38;94007.09;10358485;28;20033;-28
2023/01/16 20:52:58;;;;;;;1.83;0.50;;;;;;;16.21;47.55;93999.38;10360556;28;20064;-27
2023/01/16 20:57:59;;;;;;;0.40;0.30;;;;;;;16.34;48.35;94017.44;10349516;28;20037;-28
2023/01/16 21:02:59;;;;;;;0.98;0.40;;;;;;;16.35;48.85;94022.44;10353188;28;20358;-27
2023/01/16 21:08:00;;;;;;;0.37;0.30;;;;;;;16.29;48.16;94017.59;10316748;28;20029;-26
2023/01/16 21:23:38;;;;;;;0.63;0.43;;;;;;;16.37;46.62;94020.72;10370679;28;20517;-27
2023/01/16 21:28:39;;;;;;;1.10;0.37;;;;;;;16.46;45.98;94019.59;10368164;28;20044;-25
2023/01/16 21:33:39;;;;;;;1.00;0.32;;;;;;;16.35;46.53;94009.00;10373282;28;20101;-27
2023/01/16 21:38:39;;;;;;;4.43;0.50;;;;;;;16.42;46.55;94023.06;10382161;28;20026;-27
2023/01/16 21:49:01;;;;;;;2.20;0.40;;;;;;;16.42;48.69;94013.81;10373381;28;20296;-27
2023/01/16 21:54:01;;;;;;;0.73;0.35;;;;;;;16.49;48.54;94019.47;10371056;28;20036;-26
2023/01/16 21:59:01;;;;;;;2.00;0.53;;;;;;;16.52;48.88;94021.91;10368503;28;20422;-26
2023/01/16 22:04:02;;;;;;;0.43;0.30;;;;;;;16.49;49.11;94017.78;10371563;28;20508;-27
2023/01/16 22:09:04;;;;;;;0.43;0.20;;;;;;;16.52;49.17;94025.22;10359815;28;20494;-25
2023/01/16 22:19:29;;;;;;;0.38;0.28;;;;;;;16.54;49.93;93995.69;10367931;28;20041;-27
2023/01/16 22:24:29;;;;;;;1.40;0.40;;;;;;;16.53;48.85;93990.72;10367863;28;20046;-27
2023/01/16 22:29:29;;;;;;;1.03;0.50;;;;;;;16.55;48.15;94001.59;10366261;28;20018;-27
2023/01/16 22:34:30;;;;;;;1.60;0.60;;;;;;;16.53;48.55;93996.56;10372025;28;20149;-27
2023/01/16 22:39:30;;;;;;;0.67;0.40;;;;;;;16.52;49.38;94017.66;10363050;28;20046;-27
2023/01/16 22:49:49;;;;;;;0.88;0.50;;;;;;;16.53;48.09;94036.16;10369895;28;20041;-27
2023/01/16 22:54:49;;;;;;;1.42;0.40;;;;;;;16.52;46.09;94020.19;10371269;28;20406;-27
2023/01/16 22:59:50;;;;;;;0.23;0.20;;;;;;;16.51;48.76;94028.63;10365273;28;20597;-27
2023/01/16 23:04:50;;;;;;;1.10;0.30;;;;;;;16.51;47.78;94032.84;10366026;28;20409;-27
2023/01/16 23:09:50;;;;;;;1.13;0.60;;;;;;;16.48;49.52;94041.38;10373910;28;20276;-27
2023/01/16 23:14:51;;;;;;;0.63;0.37;;;;;;;16.49;48.99;94037.97;10374511;28;20033;-26
2023/01/16 23:19:51;;;;;;;1.02;0.30;;;;;;;16.53;46.11;94031.94;10365461;28;20080;-27
2023/01/16 23:24:52;;;;;;;1.07;0.20;;;;;;;16.51;48.86;94042.94;10374291;28;20129;-27
2023/01/16 23:29:52;;;;;;;0.83;0.40;;;;;;;16.53;47.15;94039.50;10371960;28;20037;-27
2023/01/16 23:34:53;;;;;;;1.48;0.32;;;;;;;16.53;49.85;94042.03;10362429;28;20293;-26
2023/01/16 23:39:53;;;;;;;0.40;0.30;;;;;;;16.55;47.49;94047.84;10368626;28;20490;-27
2023/01/16 23:44:53;;;;;;;0.57;0.30;;;;;;;16.54;46.58;94043.66;10368032;28;20289;-26
2023/01/16 23:49:54;;;;;;;0.43;0.37;;;;;;;16.53;47.18;94049.59;10368062;28;20658;-27
2023/01/16 23:54:55;;;;;;;0.38;0.30;;;;;;;16.50;47.58;94052.25;10376084;28;20292;-27
2023/01/16 23:59:55;;;;;;;0.38;0.20;;;;;;;16.52;47.58;94052.19;10364493;28;20046;-27
